Terminal Aerodrome Forecast
Issued by NWS

Home | Current Version | Previous Version | Graphics & Text | Print | Product List | Glossary On
Versions: 1 2 3 4 5 6 7 8 9 10 11 12 13 14 15 16 17 18 19 20 21
000
FTUS43 KGRB 251100
TAFAUW
TAF
KAUW 251129Z 2512/2612 14007KT 6SM BR SCT015 OVC040
      TEMPO 2512/2514 TSRA BKN015CB
     FM251400 20005KT 6SM HZ SCT022 BKN050
      TEMPO 2514/2517 BKN022
     FM251800 22009G17KT P6SM SCT035 SCT080
     FM252300 27004KT P6SM SCT040 SCT070
     FM260400 31005KT P6SM SCT050 BKN080=

USA.gov is the U.S. government's official web portal to all federal, state and local government web resources and services.